sensor_id;sensor_type;location;lat;lon;timestamp;pressure;altitude;pressure_sealevel;temperature;humidity
32131;BME280;18639;50.716;7.086;2023-03-21T00:00:17;100530.72;;;10.20;100.00
32131;BME280;18639;50.716;7.086;2023-03-21T00:02:42;100553.88;;;10.36;100.00
32131;BME280;18639;50.716;7.086;2023-03-21T00:05:07;100569.56;;;10.47;100.00
32131;BME280;18639;50.716;7.086;2023-03-21T00:07:33;100554.88;;;10.33;100.00
32131;BME280;18639;50.716;7.086;2023-03-21T00:09:58;100582.00;;;10.40;100.00
32131;BME280;18639;50.716;7.086;2023-03-21T00:12:23;100528.63;;;10.11;100.00
32131;BME280;18639;50.716;7.086;2023-03-21T00:14:49;100574.81;;;10.45;100.00
32131;BME280;18639;50.716;7.086;2023-03-21T00:17:14;100571.31;;;10.46;100.00
32131;BME280;18639;50.716;7.086;2023-03-21T00:19:40;100578.03;;;10.49;100.00
32131;BME280;18639;50.716;7.086;2023-03-21T00:22:06;100531.44;;;10.22;100.00
32131;BME280;18639;50.716;7.086;2023-03-21T00:24:31;100553.88;;;10.36;100.00
32131;BME280;18639;50.716;7.086;2023-03-21T00:26:56;100559.31;;;10.45;100.00
32131;BME280;18639;50.716;7.086;2023-03-21T00:29:22;100546.66;;;10.41;100.00
32131;BME280;18639;50.716;7.086;2023-03-21T00:31:47;100559.31;;;10.45;100.00
32131;BME280;18639;50.716;7.086;2023-03-21T00:34:12;100536.03;;;10.31;100.00
32131;BME280;18639;50.716;7.086;2023-03-21T00:36:38;100547.50;;;10.41;100.00
32131;BME280;18639;50.716;7.086;2023-03-21T00:39:03;100543.41;;;10.37;100.00
32131;BME280;18639;50.716;7.086;2023-03-21T00:41:30;100543.88;;;10.44;100.00
32131;BME280;18639;50.716;7.086;2023-03-21T00:43:55;100543.97;;;10.42;100.00
32131;BME280;18639;50.716;7.086;2023-03-21T00:46:22;100529.03;;;10.33;100.00
32131;BME280;18639;50.716;7.086;2023-03-21T00:48:47;100530.69;;;10.34;100.00
32131;BME280;18639;50.716;7.086;2023-03-21T00:51:17;100537.34;;;10.38;100.00
32131;BME280;18639;50.716;7.086;2023-03-21T00:53:45;100538.63;;;10.45;100.00
32131;BME280;18639;50.716;7.086;2023-03-21T00:56:11;100524.69;;;10.34;100.00
32131;BME280;18639;50.716;7.086;2023-03-21T00:58:36;100522.03;;;10.35;100.00
32131;BME280;18639;50.716;7.086;2023-03-21T01:01:02;100489.47;;;10.19;100.00
32131;BME280;18639;50.716;7.086;2023-03-21T01:03:28;100525.16;;;10.40;100.00
32131;BME280;18639;50.716;7.086;2023-03-21T01:05:53;100529.22;;;10.44;100.00
32131;BME280;18639;50.716;7.086;2023-03-21T01:08:39;100523.22;;;10.44;100.00
32131;BME280;18639;50.716;7.086;2023-03-21T01:11:08;100519.25;;;10.38;100.00
32131;BME280;18639;50.716;7.086;2023-03-21T01:13:34;100506.72;;;10.32;100.00
32131;BME280;18639;50.716;7.086;2023-03-21T01:16:00;100519.16;;;10.40;100.00
32131;BME280;18639;50.716;7.086;2023-03-21T01:18:28;100512.78;;;10.31;100.00
32131;BME280;18639;50.716;7.086;2023-03-21T01:20:58;100468.88;;;10.03;100.00
32131;BME280;18639;50.716;7.086;2023-03-21T01:23:26;100511.72;;;10.35;100.00
32131;BME280;18639;50.716;7.086;2023-03-21T01:25:52;100515.56;;;10.42;100.00
32131;BME280;18639;50.716;7.086;2023-03-21T01:28:19;100506.25;;;10.40;100.00
32131;BME280;18639;50.716;7.086;2023-03-21T01:30:49;100509.75;;;10.39;100.00
32131;BME280;18639;50.716;7.086;2023-03-21T01:33:15;100508.00;;;10.39;100.00
32131;BME280;18639;50.716;7.086;2023-03-21T01:35:41;100498.03;;;10.33;100.00
32131;BME280;18639;50.716;7.086;2023-03-21T01:38:07;100500.34;;;10.38;100.00
32131;BME280;18639;50.716;7.086;2023-03-21T01:40:34;100508.22;;;10.36;100.00
32131;BME280;18639;50.716;7.086;2023-03-21T01:42:59;100484.94;;;10.22;100.00
32131;BME280;18639;50.716;7.086;2023-03-21T01:48:28;100472.25;;;10.19;100.00
32131;BME280;18639;50.716;7.086;2023-03-21T01:50:55;100469.66;;;10.19;100.00
32131;BME280;18639;50.716;7.086;2023-03-21T01:53:25;100499.72;;;10.34;100.00
32131;BME280;18639;50.716;7.086;2023-03-21T01:56:00;100489.38;;;10.34;100.00
32131;BME280;18639;50.716;7.086;2023-03-21T01:58:27;100492.78;;;10.35;100.00
32131;BME280;18639;50.716;7.086;2023-03-21T02:00:54;100499.34;;;10.40;100.00
32131;BME280;18639;50.716;7.086;2023-03-21T02:03:21;100492.41;;;10.41;100.00
32131;BME280;18639;50.716;7.086;2023-03-21T02:05:59;100486.31;;;10.42;100.00
32131;BME280;18639;50.716;7.086;2023-03-21T02:08:27;100473.03;;;10.34;100.00
32131;BME280;18639;50.716;7.086;2023-03-21T02:10:53;100476.16;;;10.39;100.00
32131;BME280;18639;50.716;7.086;2023-03-21T02:13:19;100457.28;;;10.24;100.00
32131;BME280;18639;50.716;7.086;2023-03-21T02:19:17;100479.97;;;10.33;100.00
32131;BME280;18639;50.716;7.086;2023-03-21T02:22:12;100471.38;;;10.33;100.00
32131;BME280;18639;50.716;7.086;2023-03-21T02:38:50;100450.53;;;10.22;100.00
32131;BME280;18639;50.716;7.086;2023-03-21T02:44:14;100437.75;;;10.20;100.00
32131;BME280;18639;50.716;7.086;2023-03-21T02:49:21;100428.97;;;10.23;100.00
32131;BME280;18639;50.716;7.086;2023-03-21T02:51:49;100431.63;;;10.21;100.00
32131;BME280;18639;50.716;7.086;2023-03-21T02:54:17;100447.03;;;10.23;100.00
32131;BME280;18639;50.716;7.086;2023-03-21T02:56:46;100431.53;;;10.08;100.00
32131;BME280;18639;50.716;7.086;2023-03-21T02:59:15;100425.56;;;10.22;100.00
32131;BME280;18639;50.716;7.086;2023-03-21T03:01:42;100439.66;;;10.17;100.00
32131;BME280;18639;50.716;7.086;2023-03-21T03:04:23;100435.59;;;10.12;100.00
32131;BME280;18639;50.716;7.086;2023-03-21T03:18:19;100419.09;;;10.01;100.00
32131;BME280;18639;50.716;7.086;2023-03-21T03:21:02;100417.16;;;9.90;100.00
32131;BME280;18639;50.716;7.086;2023-03-21T03:23:43;100422.88;;;9.95;100.00
32131;BME280;18639;50.716;7.086;2023-03-21T03:26:21;100422.25;;;9.92;100.00
32131;BME280;18639;50.716;7.086;2023-03-21T03:28:51;100418.81;;;9.91;100.00
32131;BME280;18639;50.716;7.086;2023-03-21T03:31:25;100406.50;;;9.82;100.00
32131;BME280;18639;50.716;7.086;2023-03-21T03:33:54;100351.81;;;9.47;100.00
32131;BME280;18639;50.716;7.086;2023-03-21T03:36:25;100410.44;;;9.88;100.00
32131;BME280;18639;50.716;7.086;2023-03-21T03:38:52;100370.53;;;9.65;100.00
32131;BME280;18639;50.716;7.086;2023-03-21T03:41:26;100414.50;;;9.92;100.00
32131;BME280;18639;50.716;7.086;2023-03-21T03:43:55;100406.56;;;9.95;100.00
32131;BME280;18639;50.716;7.086;2023-03-21T03:49:08;100407.84;;;10.02;100.00
32131;BME280;18639;50.716;7.086;2023-03-21T03:51:56;100399.81;;;10.06;100.00
32131;BME280;18639;50.716;7.086;2023-03-21T03:54:38;100371.75;;;9.88;100.00
32131;BME280;18639;50.716;7.086;2023-03-21T03:57:05;100394.94;;;10.02;100.00
32131;BME280;18639;50.716;7.086;2023-03-21T03:59:36;100383.03;;;9.99;100.00
32131;BME280;18639;50.716;7.086;2023-03-21T04:02:02;100377.53;;;9.91;100.00
32131;BME280;18639;50.716;7.086;2023-03-21T04:04:28;100386.44;;;10.00;100.00
32131;BME280;18639;50.716;7.086;2023-03-21T04:06:54;100385.63;;;9.99;100.00
32131;BME280;18639;50.716;7.086;2023-03-21T04:09:20;100378.00;;;9.98;100.00
32131;BME280;18639;50.716;7.086;2023-03-21T04:11:45;100384.41;;;10.05;100.00
32131;BME280;18639;50.716;7.086;2023-03-21T04:14:11;100356.41;;;9.85;100.00
32131;BME280;18639;50.716;7.086;2023-03-21T04:16:36;100381.28;;;10.00;100.00
32131;BME280;18639;50.716;7.086;2023-03-21T04:19:02;100384.41;;;10.05;100.00
32131;BME280;18639;50.716;7.086;2023-03-21T04:21:28;100383.41;;;10.07;100.00
32131;BME280;18639;50.716;7.086;2023-03-21T04:23:54;100382.56;;;10.07;100.00
32131;BME280;18639;50.716;7.086;2023-03-21T04:26:20;100388.50;;;10.09;100.00
32131;BME280;18639;50.716;7.086;2023-03-21T04:28:47;100387.53;;;10.10;100.00
32131;BME280;18639;50.716;7.086;2023-03-21T04:31:12;100372.63;;;10.01;100.00
32131;BME280;18639;50.716;7.086;2023-03-21T04:33:38;100370.13;;;9.99;100.00
32131;BME280;18639;50.716;7.086;2023-03-21T04:36:07;100371.34;;;10.08;100.00
32131;BME280;18639;50.716;7.086;2023-03-21T04:38:36;100366.53;;;10.02;100.00
32131;BME280;18639;50.716;7.086;2023-03-21T04:41:02;100360.63;;;10.00;100.00
32131;BME280;18639;50.716;7.086;2023-03-21T04:43:28;100372.34;;;10.05;100.00
32131;BME280;18639;50.716;7.086;2023-03-21T04:45:54;100374.28;;;10.02;100.00
32131;BME280;18639;50.716;7.086;2023-03-21T04:48:20;100372.44;;;10.04;100.00
32131;BME280;18639;50.716;7.086;2023-03-21T04:50:49;100344.09;;;9.76;100.00
32131;BME280;18639;50.716;7.086;2023-03-21T04:53:14;100335.06;;;9.68;100.00
32131;BME280;18639;50.716;7.086;2023-03-21T04:55:39;100373.53;;;10.00;100.00
32131;BME280;18639;50.716;7.086;2023-03-21T04:58:05;100376.13;;;10.00;100.00
32131;BME280;18639;50.716;7.086;2023-03-21T05:00:30;100373.19;;;9.92;100.00
32131;BME280;18639;50.716;7.086;2023-03-21T05:02:56;100374.28;;;10.02;100.00
32131;BME280;18639;50.716;7.086;2023-03-21T05:05:23;100348.88;;;9.82;100.00
32131;BME280;18639;50.716;7.086;2023-03-21T05:07:48;100382.78;;;10.04;100.00
32131;BME280;18639;50.716;7.086;2023-03-21T05:10:14;100369.22;;;10.00;100.00
32131;BME280;18639;50.716;7.086;2023-03-21T05:12:40;100372.63;;;10.01;100.00
32131;BME280;18639;50.716;7.086;2023-03-21T05:15:07;100370.28;;;10.10;100.00
32131;BME280;18639;50.716;7.086;2023-03-21T05:17:33;100366.34;;;10.05;100.00
32131;BME280;18639;50.716;7.086;2023-03-21T05:19:58;100353.00;;;9.98;100.00
32131;BME280;18639;50.716;7.086;2023-03-21T05:22:24;100351.34;;;9.97;100.00
32131;BME280;18639;50.716;7.086;2023-03-21T05:24:51;100343.16;;;9.91;100.00
32131;BME280;18639;50.716;7.086;2023-03-21T05:27:20;100361.72;;;10.10;100.00
32131;BME280;18639;50.716;7.086;2023-03-21T05:30:04;100357.34;;;9.98;100.00
32131;BME280;18639;50.716;7.086;2023-03-21T05:32:30;100381.16;;;10.15;100.00
32131;BME280;18639;50.716;7.086;2023-03-21T05:34:55;100366.25;;;10.06;100.00
32131;BME280;18639;50.716;7.086;2023-03-21T05:37:21;100312.38;;;9.73;100.00
32131;BME280;18639;50.716;7.086;2023-03-21T05:39:46;100352.19;;;9.98;100.00
32131;BME280;18639;50.716;7.086;2023-03-21T05:42:12;100373.19;;;10.20;100.00
32131;BME280;18639;50.716;7.086;2023-03-21T05:44:37;100311.19;;;9.79;100.00
32131;BME280;18639;50.716;7.086;2023-03-21T05:47:04;100360.63;;;10.14;100.00
32131;BME280;18639;50.716;7.086;2023-03-21T05:49:30;100345.34;;;9.97;100.00
32131;BME280;18639;50.716;7.086;2023-03-21T05:51:56;100375.78;;;10.20;100.00
32131;BME280;18639;50.716;7.086;2023-03-21T05:54:22;100366.72;;;10.13;100.00
32131;BME280;18639;50.716;7.086;2023-03-21T05:56:47;100371.03;;;10.12;100.00
32131;BME280;18639;50.716;7.086;2023-03-21T05:59:12;100333.34;;;9.96;100.00
32131;BME280;18639;50.716;7.086;2023-03-21T06:01:38;100392.72;;;10.24;100.00
32131;BME280;18639;50.716;7.086;2023-03-21T06:04:03;100371.31;;;10.22;100.00
32131;BME280;18639;50.716;7.086;2023-03-21T06:06:28;100388.09;;;10.29;100.00
32131;BME280;18639;50.716;7.086;2023-03-21T06:08:54;100372.59;;;10.29;100.00
32131;BME280;18639;50.716;7.086;2023-03-21T06:11:25;100375.91;;;10.31;100.00
32131;BME280;18639;50.716;7.086;2023-03-21T06:13:57;100365.78;;;10.28;100.00
32131;BME280;18639;50.716;7.086;2023-03-21T06:16:22;100376.84;;;10.30;100.00
32131;BME280;18639;50.716;7.086;2023-03-21T06:18:48;100354.50;;;10.15;100.00
32131;BME280;18639;50.716;7.086;2023-03-21T06:21:13;100360.53;;;10.30;100.00
32131;BME280;18639;50.716;7.086;2023-03-21T06:23:38;100382.25;;;10.40;100.00
32131;BME280;18639;50.716;7.086;2023-03-21T06:26:04;100362.59;;;10.37;100.00
32131;BME280;18639;50.716;7.086;2023-03-21T06:28:30;100375.44;;;10.39;100.00
32131;BME280;18639;50.716;7.086;2023-03-21T06:30:55;100367.06;;;10.35;100.00
32131;BME280;18639;50.716;7.086;2023-03-21T06:33:21;100370.88;;;10.42;100.00
32131;BME280;18639;50.716;7.086;2023-03-21T06:35:51;100383.25;;;10.51;100.00
32131;BME280;18639;50.716;7.086;2023-03-21T06:38:17;100373.09;;;10.48;100.00
32131;BME280;18639;50.716;7.086;2023-03-21T06:40:44;100368.75;;;10.49;100.00
32131;BME280;18639;50.716;7.086;2023-03-21T06:43:09;100370.50;;;10.48;100.00
32131;BME280;18639;50.716;7.086;2023-03-21T06:45:35;100379.63;;;10.54;100.00
32131;BME280;18639;50.716;7.086;2023-03-21T06:48:00;100357.41;;;10.51;100.00
32131;BME280;18639;50.716;7.086;2023-03-21T06:50:25;100369.38;;;10.52;100.00
32131;BME280;18639;50.716;7.086;2023-03-21T06:52:50;100380.69;;;10.64;100.00
32131;BME280;18639;50.716;7.086;2023-03-21T06:55:17;100399.22;;;10.71;100.00
32131;BME280;18639;50.716;7.086;2023-03-21T06:57:43;100395.50;;;10.75;100.00
32131;BME280;18639;50.716;7.086;2023-03-21T07:00:10;100377.81;;;10.69;100.00
32131;BME280;18639;50.716;7.086;2023-03-21T07:02:36;100391.16;;;10.75;100.00
32131;BME280;18639;50.716;7.086;2023-03-21T07:05:02;100388.19;;;10.81;100.00
32131;BME280;18639;50.716;7.086;2023-03-21T07:07:27;100374.50;;;10.67;100.00
32131;BME280;18639;50.716;7.086;2023-03-21T07:09:54;100368.00;;;10.74;100.00
32131;BME280;18639;50.716;7.086;2023-03-21T07:12:21;100402.25;;;10.90;100.00
32131;BME280;18639;50.716;7.086;2023-03-21T07:14:47;100399.50;;;10.93;100.00
32131;BME280;18639;50.716;7.086;2023-03-21T07:17:12;100384.59;;;10.84;100.00
32131;BME280;18639;50.716;7.086;2023-03-21T07:19:37;100414.78;;;10.96;100.00
32131;BME280;18639;50.716;7.086;2023-03-21T07:22:03;100392.97;;;10.87;100.00
32131;BME280;18639;50.716;7.086;2023-03-21T07:24:29;100414.69;;;10.97;100.00
32131;BME280;18639;50.716;7.086;2023-03-21T07:26:54;100396.38;;;10.88;100.00
32131;BME280;18639;50.716;7.086;2023-03-21T07:29:21;100405.69;;;10.90;100.00
32131;BME280;18639;50.716;7.086;2023-03-21T07:31:47;100424.31;;;10.95;100.00
32131;BME280;18639;50.716;7.086;2023-03-21T07:34:12;100416.13;;;10.89;100.00
32131;BME280;18639;50.716;7.086;2023-03-21T07:36:40;100423.69;;;10.92;100.00
32131;BME280;18639;50.716;7.086;2023-03-21T07:39:05;100410.00;;;10.90;100.00
32131;BME280;18639;50.716;7.086;2023-03-21T07:41:31;100421.84;;;10.94;100.00
32131;BME280;18639;50.716;7.086;2023-03-21T07:43:56;100421.09;;;10.92;100.00
32131;BME280;18639;50.716;7.086;2023-03-21T07:46:22;100426.47;;;10.89;100.00
32131;BME280;18639;50.716;7.086;2023-03-21T07:48:47;100420.78;;;10.84;100.00
32131;BME280;18639;50.716;7.086;2023-03-21T07:51:12;100401.19;;;10.67;100.00
32131;BME280;18639;50.716;7.086;2023-03-21T07:53:37;100416.72;;;10.80;100.00
32131;BME280;18639;50.716;7.086;2023-03-21T07:56:06;100395.28;;;10.65;100.00
32131;BME280;18639;50.716;7.086;2023-03-21T07:58:32;100418.06;;;10.73;100.00
32131;BME280;18639;50.716;7.086;2023-03-21T08:00:58;100420.28;;;10.65;100.00
32131;BME280;18639;50.716;7.086;2023-03-21T08:03:27;100420.50;;;10.62;100.00
32131;BME280;18639;50.716;7.086;2023-03-21T08:06:01;100428.03;;;10.65;100.00
32131;BME280;18639;50.716;7.086;2023-03-21T08:08:26;100411.13;;;10.46;100.00
32131;BME280;18639;50.716;7.086;2023-03-21T08:10:51;100417.84;;;10.49;100.00
32131;BME280;18639;50.716;7.086;2023-03-21T08:13:17;100393.97;;;10.31;100.00
32131;BME280;18639;50.716;7.086;2023-03-21T08:15:42;100434.16;;;10.49;100.00
32131;BME280;18639;50.716;7.086;2023-03-21T08:18:08;100437.59;;;10.50;100.00
32131;BME280;18639;50.716;7.086;2023-03-21T08:20:44;100430.22;;;10.44;100.00
32131;BME280;18639;50.716;7.086;2023-03-21T08:23:09;100408.75;;;10.29;100.00
32131;BME280;18639;50.716;7.086;2023-03-21T08:25:38;100429.38;;;10.43;100.00
32131;BME280;18639;50.716;7.086;2023-03-21T08:28:07;100419.56;;;10.36;100.00
32131;BME280;18639;50.716;7.086;2023-03-21T08:30:32;100408.94;;;10.26;100.00
32131;BME280;18639;50.716;7.086;2023-03-21T08:32:58;100415.00;;;10.39;100.00
32131;BME280;18639;50.716;7.086;2023-03-21T08:35:27;100410.81;;;10.24;100.00
32131;BME280;18639;50.716;7.086;2023-03-21T08:37:53;100433.19;;;10.38;100.00
32131;BME280;18639;50.716;7.086;2023-03-21T08:40:18;100402.69;;;10.16;100.00
32131;BME280;18639;50.716;7.086;2023-03-21T08:42:45;100404.91;;;10.22;100.00
32131;BME280;18639;50.716;7.086;2023-03-21T08:45:12;100424.81;;;10.34;100.00
32131;BME280;18639;50.716;7.086;2023-03-21T08:47:38;100424.72;;;10.36;100.00
32131;BME280;18639;50.716;7.086;2023-03-21T08:50:07;100405.63;;;10.24;100.00
32131;BME280;18639;50.716;7.086;2023-03-21T08:52:33;100430.50;;;10.39;100.00
32131;BME280;18639;50.716;7.086;2023-03-21T08:54:59;100429.03;;;10.35;100.00
32131;BME280;18639;50.716;7.086;2023-03-21T08:57:26;100419.94;;;10.30;100.00
32131;BME280;18639;50.716;7.086;2023-03-21T08:59:51;100422.81;;;10.25;100.00
32131;BME280;18639;50.716;7.086;2023-03-21T09:02:17;100430.13;;;10.31;100.00
32131;BME280;18639;50.716;7.086;2023-03-21T09:04:42;100432.25;;;10.39;100.00
32131;BME280;18639;50.716;7.086;2023-03-21T09:07:10;100436.22;;;10.44;100.00
32131;BME280;18639;50.716;7.086;2023-03-21T09:09:37;100429.59;;;10.40;100.00
32131;BME280;18639;50.716;7.086;2023-03-21T09:12:03;100438.81;;;10.44;100.00
32131;BME280;18639;50.716;7.086;2023-03-21T09:14:28;100415.69;;;10.29;100.00
32131;BME280;18639;50.716;7.086;2023-03-21T09:16:53;100411.25;;;10.31;100.00
32131;BME280;18639;50.716;7.086;2023-03-21T09:19:19;100440.25;;;10.48;100.00
32131;BME280;18639;50.716;7.086;2023-03-21T09:21:44;100418.19;;;10.30;100.00
32131;BME280;18639;50.716;7.086;2023-03-21T09:24:10;100416.22;;;10.34;100.00
32131;BME280;18639;50.716;7.086;2023-03-21T09:26:37;100381.38;;;10.12;100.00
32131;BME280;18639;50.716;7.086;2023-03-21T09:29:03;100419.25;;;10.40;100.00
32131;BME280;18639;50.716;7.086;2023-03-21T09:31:30;100415.00;;;10.39;100.00
32131;BME280;18639;50.716;7.086;2023-03-21T09:33:56;100421.63;;;10.43;100.00
32131;BME280;18639;50.716;7.086;2023-03-21T09:36:23;100415.75;;;10.41;100.00
32131;BME280;18639;50.716;7.086;2023-03-21T09:38:50;100418.88;;;10.46;100.00
32131;BME280;18639;50.716;7.086;2023-03-21T09:41:39;100418.03;;;10.46;100.00
32131;BME280;18639;50.716;7.086;2023-03-21T09:44:19;100417.38;;;10.42;100.00
32131;BME280;18639;50.716;7.086;2023-03-21T09:46:52;100414.84;;;10.28;100.00
32131;BME280;18639;50.716;7.086;2023-03-21T09:49:25;100395.19;;;10.11;100.00
32131;BME280;18639;50.716;7.086;2023-03-21T09:51:57;100420.94;;;10.27;100.00
32131;BME280;18639;50.716;7.086;2023-03-21T09:54:29;100419.47;;;10.23;100.00
32131;BME280;18639;50.716;7.086;2023-03-21T09:57:01;100407.19;;;10.12;100.00
32131;BME280;18639;50.716;7.086;2023-03-21T09:59:35;100422.81;;;10.25;100.00
32131;BME280;18639;50.716;7.086;2023-03-21T10:02:39;100419.56;;;10.22;100.00
32131;BME280;18639;50.716;7.086;2023-03-21T10:05:16;100417.72;;;10.24;100.00
32131;BME280;18639;50.716;7.086;2023-03-21T10:07:50;100419.81;;;10.31;100.00
32131;BME280;18639;50.716;7.086;2023-03-21T10:10:21;100397.53;;;10.16;100.00
32131;BME280;18639;50.716;7.086;2023-03-21T10:12:49;100383.88;;;10.14;100.00
32131;BME280;18639;50.716;7.086;2023-03-21T10:15:19;100403.69;;;10.13;100.00
32131;BME280;18639;50.716;7.086;2023-03-21T10:17:53;100388.94;;;10.01;100.00
32131;BME280;18639;50.716;7.086;2023-03-21T10:20:25;100374.94;;;9.91;100.00
32131;BME280;18639;50.716;7.086;2023-03-21T10:22:55;100393.00;;;10.05;100.00
32131;BME280;18639;50.716;7.086;2023-03-21T10:25:30;100398.59;;;10.26;100.00
32131;BME280;18639;50.716;7.086;2023-03-21T10:27:57;100394.56;;;10.36;100.00
32131;BME280;18639;50.716;7.086;2023-03-21T10:30:34;100377.75;;;10.15;100.00
32131;BME280;18639;50.716;7.086;2023-03-21T10:33:03;100350.06;;;9.90;100.00
32131;BME280;18639;50.716;7.086;2023-03-21T10:35:34;100371.78;;;10.29;100.00
32131;BME280;18639;50.716;7.086;2023-03-21T10:38:02;100355.81;;;10.22;100.00
32131;BME280;18639;50.716;7.086;2023-03-21T10:40:28;100370.94;;;10.28;100.00
32131;BME280;18639;50.716;7.086;2023-03-21T10:42:55;100359.25;;;10.23;100.00
32131;BME280;18639;50.716;7.086;2023-03-21T10:45:22;100344.50;;;10.25;100.00
32131;BME280;18639;50.716;7.086;2023-03-21T10:47:49;100353.59;;;10.30;100.00
32131;BME280;18639;50.716;7.086;2023-03-21T10:50:18;100351.22;;;10.13;100.00
32131;BME280;18639;50.716;7.086;2023-03-21T10:52:55;100353.25;;;10.08;100.00
32131;BME280;18639;50.716;7.086;2023-03-21T10:55:28;100337.22;;;10.03;100.00
32131;BME280;18639;50.716;7.086;2023-03-21T10:57:58;100346.44;;;10.07;100.00
32131;BME280;18639;50.716;7.086;2023-03-21T11:00:32;100330.56;;;10.13;100.00
32131;BME280;18639;50.716;7.086;2023-03-21T11:02:59;100340.34;;;10.22;100.00
32131;BME280;18639;50.716;7.086;2023-03-21T11:05:33;100344.00;;;10.32;100.00
32131;BME280;18639;50.716;7.086;2023-03-21T11:08:03;100348.06;;;10.36;100.00
32131;BME280;18639;50.716;7.086;2023-03-21T11:10:34;100341.16;;;10.23;100.00
32131;BME280;18639;50.716;7.086;2023-03-21T11:13:05;100329.22;;;10.34;100.00
32131;BME280;18639;50.716;7.086;2023-03-21T11:15:57;100324.25;;;10.31;100.00
32131;BME280;18639;50.716;7.086;2023-03-21T11:18:29;100329.16;;;10.48;100.00
32131;BME280;18639;50.716;7.086;2023-03-21T11:20:58;100335.69;;;10.54;100.00
32131;BME280;18639;50.716;7.086;2023-03-21T11:23:28;100333.09;;;10.41;100.00
32131;BME280;18639;50.716;7.086;2023-03-21T11:25:55;100325.97;;;10.45;100.00
32131;BME280;18639;50.716;7.086;2023-03-21T11:28:24;100312.06;;;10.33;100.00
32131;BME280;18639;50.716;7.086;2023-03-21T11:30:58;100334.09;;;10.39;100.00
32131;BME280;18639;50.716;7.086;2023-03-21T11:34:12;100315.34;;;10.49;100.00
32131;BME280;18639;50.716;7.086;2023-03-21T11:38:43;100326.78;;;10.45;100.00
32131;BME280;18639;50.716;7.086;2023-03-21T11:41:22;100302.28;;;10.38;100.00
32131;BME280;18639;50.716;7.086;2023-03-21T11:43:51;100298.97;;;10.36;100.00
32131;BME280;18639;50.716;7.086;2023-03-21T11:46:25;100301.75;;;10.33;100.00
32131;BME280;18639;50.716;7.086;2023-03-21T11:48:52;100274.59;;;10.13;100.00
32131;BME280;18639;50.716;7.086;2023-03-21T11:54:21;100272.84;;;10.14;100.00
32131;BME280;18639;50.716;7.086;2023-03-21T12:00:17;100277.88;;;10.15;100.00
32131;BME280;18639;50.716;7.086;2023-03-21T12:03:20;100258.09;;;10.16;100.00
32131;BME280;18639;50.716;7.086;2023-03-21T12:05:55;100268.03;;;10.22;100.00
32131;BME280;18639;50.716;7.086;2023-03-21T12:14:08;100264.75;;;10.33;100.00
32131;BME280;18639;50.716;7.086;2023-03-21T12:19:48;100252.50;;;10.36;100.00
32131;BME280;18639;50.716;7.086;2023-03-21T12:25:51;100244.66;;;10.50;100.00
32131;BME280;18639;50.716;7.086;2023-03-21T12:33:41;100215.50;;;10.36;100.00
32131;BME280;18639;50.716;7.086;2023-03-21T12:39:03;100240.44;;;10.62;100.00
32131;BME280;18639;50.716;7.086;2023-03-21T12:41:37;100229.47;;;10.46;100.00
32131;BME280;18639;50.716;7.086;2023-03-21T12:44:12;100228.16;;;10.26;100.00
32131;BME280;18639;50.716;7.086;2023-03-21T12:49:34;100241.25;;;10.50;100.00
32131;BME280;18639;50.716;7.086;2023-03-21T12:52:24;100232.88;;;10.59;100.00
32131;BME280;18639;50.716;7.086;2023-03-21T12:54:55;100231.13;;;10.60;100.00
32131;BME280;18639;50.716;7.086;2023-03-21T13:00:17;100265.69;;;10.84;100.00
32131;BME280;18639;50.716;7.086;2023-03-21T13:05:50;100259.06;;;11.05;100.00
32131;BME280;18639;50.716;7.086;2023-03-21T13:08:27;100236.31;;;10.97;100.00
32131;BME280;18639;50.716;7.086;2023-03-21T13:10:54;100228.31;;;11.01;100.00
32131;BME280;18639;50.716;7.086;2023-03-21T13:13:34;100231.50;;;11.17;100.00
32131;BME280;18639;50.716;7.086;2023-03-21T13:19:12;100216.22;;;11.14;100.00
32131;BME280;18639;50.716;7.086;2023-03-21T13:21:56;100204.72;;;11.30;100.00
32131;BME280;18639;50.716;7.086;2023-03-21T13:24:44;100212.47;;;11.30;100.00
32131;BME280;18639;50.716;7.086;2023-03-21T13:27:30;100207.28;;;11.43;100.00
32131;BME280;18639;50.716;7.086;2023-03-21T13:30:01;100198.88;;;11.39;100.00
32131;BME280;18639;50.716;7.086;2023-03-21T13:32:39;100196.59;;;11.48;100.00
32131;BME280;18639;50.716;7.086;2023-03-21T13:35:21;100188.78;;;11.60;100.00
32131;BME280;18639;50.716;7.086;2023-03-21T13:38:20;100164.56;;;11.61;100.00
32131;BME280;18639;50.716;7.086;2023-03-21T13:40:51;100152.00;;;11.68;100.00
32131;BME280;18639;50.716;7.086;2023-03-21T13:46:14;100174.31;;;11.81;100.00
32131;BME280;18639;50.716;7.086;2023-03-21T13:53:59;100173.69;;;11.91;100.00
32131;BME280;18639;50.716;7.086;2023-03-21T13:56:25;100165.25;;;11.76;100.00
32131;BME280;18639;50.716;7.086;2023-03-21T13:58:53;100166.38;;;11.72;100.00
32131;BME280;18639;50.716;7.086;2023-03-21T14:06:33;100139.88;;;11.68;100.00
32131;BME280;18639;50.716;7.086;2023-03-21T14:09:00;100117.56;;;11.55;100.00
32131;BME280;18639;50.716;7.086;2023-03-21T14:11:27;100113.03;;;11.58;100.00
32131;BME280;18639;50.716;7.086;2023-03-21T14:13:55;100127.78;;;11.69;100.00
32131;BME280;18639;50.716;7.086;2023-03-21T14:16:25;100099.91;;;11.72;100.00
32131;BME280;18639;50.716;7.086;2023-03-21T14:19:04;100114.66;;;11.83;100.00
32131;BME280;18639;50.716;7.086;2023-03-21T14:21:34;100121.53;;;11.95;100.00
32131;BME280;18639;50.716;7.086;2023-03-21T14:24:00;100122.19;;;11.86;100.00